createdAt,value
2019-01-11T00:00:05.926Z,28
2019-01-11T00:02:05.553Z,28.2
2019-01-11T00:04:07.903Z,28.1
2019-01-11T00:06:05.607Z,28
2019-01-11T00:08:05.249Z,28.2
2019-01-11T00:10:05.930Z,28.2
2019-01-11T00:12:08.148Z,28.2
2019-01-11T00:14:05.902Z,28
2019-01-11T00:16:05.674Z,28.1
2019-01-11T00:18:05.526Z,28.1
2019-01-11T00:20:05.204Z,28
2019-01-11T00:22:05.876Z,28.2
2019-01-11T00:24:10.627Z,28.1
2019-01-11T00:26:05.432Z,28.1
2019-01-11T00:28:05.167Z,28.1
2019-01-11T00:30:11.074Z,28.2
2019-01-11T00:32:05.759Z,28.2
2019-01-11T00:34:05.948Z,28.1
2019-01-11T00:36:05.610Z,28.3
2019-01-11T00:38:05.275Z,28.4
2019-01-11T00:40:07.990Z,28.1
2019-01-11T00:42:05.261Z,28.1
2019-01-11T00:44:05.981Z,28.3
2019-01-11T00:46:05.736Z,28.2
2019-01-11T00:48:05.489Z,28.3
2019-01-11T00:50:05.156Z,28.3
2019-01-11T00:52:07.869Z,28.3
2019-01-11T00:54:05.626Z,28.3
2019-01-11T00:56:05.494Z,28.2
2019-01-11T00:58:05.249Z,28.3
2019-01-11T01:00:05.454Z,28.3
2019-01-11T01:02:05.124Z,28.3
2019-01-11T01:04:05.784Z,28.3
2019-01-11T01:06:05.983Z,28.3
2019-01-11T01:08:05.796Z,28.2
2019-01-11T01:10:05.520Z,28.3
2019-01-11T01:12:05.257Z,28.3
2019-01-11T01:14:05.503Z,28.3
2019-01-11T01:16:05.229Z,28.3
2019-01-11T01:18:05.215Z,28.4
2019-01-11T01:20:05.967Z,28.2
2019-01-11T01:22:05.672Z,28.2
2019-01-11T01:24:05.377Z,28.2
2019-01-11T01:26:05.104Z,28.2
2019-01-11T01:28:05.758Z,28.4
2019-01-11T01:30:05.915Z,28.3
2019-01-11T01:32:13.205Z,28.2
2019-01-11T01:34:08.410Z,28.2
2019-01-11T01:36:05.080Z,28.2
2019-01-11T01:38:15.955Z,28.2
2019-01-11T01:40:05.639Z,28.2
2019-01-11T01:42:07.833Z,28.3
2019-01-11T01:44:05.095Z,28.3
2019-01-11T01:46:08.362Z,28.3
2019-01-11T01:48:05.017Z,28.3
2019-01-11T01:50:08.258Z,28.3
2019-01-11T01:52:05.548Z,28.3
2019-01-11T01:54:05.768Z,28.3
2019-01-11T01:56:08.037Z,28.3
2019-01-11T01:58:05.695Z,28.3
2019-01-11T02:00:05.380Z,28.3
2019-01-11T02:02:05.183Z,28.3
2019-01-11T02:04:05.915Z,28.1
2019-01-11T02:06:05.593Z,28.1
2019-01-11T02:08:05.279Z,28.4
2019-01-11T02:10:05.052Z,28.3
2019-01-11T02:12:10.791Z,28.3
2019-01-11T02:14:05.516Z,28.3
2019-01-11T02:16:05.235Z,28.3
2019-01-11T02:18:05.116Z,28.3
2019-01-11T02:20:05.848Z,28.3
2019-01-11T02:22:05.589Z,28.3
2019-01-11T02:24:05.395Z,28.3
2019-01-11T02:26:07.632Z,28.3
2019-01-11T02:28:05.358Z,28.3
2019-01-11T02:30:05.098Z,28.3
2019-01-11T02:32:05.877Z,28.3
2019-01-11T02:34:05.584Z,28.3
2019-01-11T02:36:05.241Z,28.3
2019-01-11T02:38:05.959Z,28.3
2019-01-11T02:40:05.620Z,28.3
2019-01-11T02:42:07.830Z,28.1
2019-01-11T02:44:08.046Z,28.4
2019-01-11T02:46:08.245Z,28.2
2019-01-11T02:48:05.975Z,28.4
2019-01-11T02:50:05.706Z,28.2
2019-01-11T02:52:05.439Z,28.4
2019-01-11T02:54:07.662Z,28.3
2019-01-11T02:56:10.959Z,28.2
2019-01-11T02:58:05.678Z,28.2
2019-01-11T03:00:05.402Z,28.3
2019-01-11T03:02:08.185Z,28.2
2019-01-11T03:04:05.984Z,28.2
2019-01-11T03:06:08.259Z,28.2
2019-01-11T03:08:05.472Z,28.2
2019-01-11T03:10:05.216Z,28.3
2019-01-11T03:12:08.447Z,28.3
2019-01-11T03:14:05.137Z,28.3
2019-01-11T03:16:05.931Z,28.2
2019-01-11T03:18:05.868Z,28.3
2019-01-11T03:20:05.613Z,28.2
2019-01-11T03:22:12.899Z,28.2
2019-01-11T03:24:05.543Z,28.2
2019-01-11T03:26:05.317Z,28.3
2019-01-11T03:28:07.645Z,28.2
2019-01-11T03:30:05.369Z,28.2
2019-01-11T03:32:05.081Z,28.2
2019-01-11T03:34:05.609Z,28.3
2019-01-11T03:36:05.841Z,28.3
2019-01-11T03:38:05.541Z,28.3
2019-01-11T03:40:07.757Z,28.3
2019-01-11T03:42:05.620Z,28.3
2019-01-11T03:44:05.414Z,28.3
2019-01-11T03:46:05.395Z,28.3
2019-01-11T03:48:08.290Z,28.3
2019-01-11T03:50:05.485Z,28.3
2019-01-11T03:52:05.877Z,28.3
2019-01-11T03:54:05.524Z,28.3
2019-01-11T03:56:07.707Z,28.2
2019-01-11T03:58:05.414Z,28.2
2019-01-11T04:00:05.682Z,28.2
2019-01-11T04:02:05.344Z,28.4
2019-01-11T04:04:05.068Z,28.4
2019-01-11T04:06:05.793Z,28.3
2019-01-11T04:08:05.487Z,28.3
2019-01-11T04:10:08.271Z,28.2
2019-01-11T04:12:11.141Z,28.2
2019-01-11T04:14:05.816Z,28.2
2019-01-11T04:16:10.523Z,28.2
2019-01-11T04:18:05.458Z,28.1
2019-01-11T04:20:05.329Z,28.1
2019-01-11T04:22:06.012Z,28.1
2019-01-11T04:24:05.774Z,28.2
2019-01-11T04:26:05.591Z,28.2
2019-01-11T04:28:05.386Z,28.2
2019-01-11T04:30:05.182Z,28.2
2019-01-11T04:32:05.912Z,28.2
2019-01-11T04:34:05.613Z,28.2
2019-01-11T04:36:07.912Z,28.2
2019-01-11T04:38:08.102Z,28.2
2019-01-11T04:40:05.816Z,28.2
2019-01-11T04:42:05.519Z,28.2
2019-01-11T04:44:05.229Z,28.2
2019-01-11T04:46:05.923Z,28.2
2019-01-11T04:48:05.255Z,28.2
2019-01-11T04:50:09.962Z,28.2
2019-01-11T04:52:05.689Z,28.2
2019-01-11T04:54:05.928Z,28.2
2019-01-11T04:56:05.608Z,28.1
2019-01-11T04:58:06.673Z,28.2
2019-01-11T05:00:05.476Z,28.3
2019-01-11T05:02:05.188Z,28.3
2019-01-11T05:04:05.956Z,28.3
2019-01-11T05:06:08.194Z,28.2
2019-01-11T05:08:13.029Z,28.4
2019-01-11T05:10:10.907Z,28.3
2019-01-11T05:12:08.132Z,28.3
2019-01-11T05:14:05.854Z,28.3
2019-01-11T05:16:08.070Z,28.2
2019-01-11T05:18:05.908Z,28.2
2019-01-11T05:20:05.615Z,28.3
2019-01-11T05:22:05.234Z,28.2
2019-01-11T05:24:05.914Z,28.2
2019-01-11T05:26:05.294Z,28.2
2019-01-11T05:28:09.310Z,28.2
2019-01-11T05:30:11.735Z,28.2
2019-01-11T05:32:05.742Z,28.7
2019-01-11T05:34:05.575Z,28.2
2019-01-11T05:36:05.784Z,28.1
2019-01-11T05:38:08.083Z,28.1
2019-01-11T05:40:05.746Z,28.1
2019-01-11T05:42:05.500Z,28.1
2019-01-11T05:44:07.805Z,28.1
2019-01-11T05:46:10.520Z,28.1
2019-01-11T05:48:05.316Z,28.1
2019-01-11T05:50:05.013Z,28.2
2019-01-11T05:52:08.292Z,28
2019-01-11T05:54:05.938Z,28
2019-01-11T05:56:05.855Z,28
2019-01-11T05:58:05.650Z,28.1
2019-01-11T06:00:05.358Z,28.1
2019-01-11T06:02:05.267Z,28
2019-01-11T06:04:05.966Z,28.2
2019-01-11T06:06:05.673Z,28.2
2019-01-11T06:08:05.897Z,28.2
2019-01-11T06:10:05.612Z,28.1
2019-01-11T06:12:05.515Z,28.3
2019-01-11T06:14:05.642Z,28.1
2019-01-11T06:16:05.703Z,28.3
2019-01-11T06:18:05.584Z,28.2
2019-01-11T06:20:05.264Z,28.2
2019-01-11T06:22:06.025Z,28.2
2019-01-11T06:24:05.234Z,28.2
2019-01-11T06:26:05.897Z,28.3
2019-01-11T06:28:08.113Z,28.2
2019-01-11T06:30:05.819Z,28.2
2019-01-11T06:32:05.557Z,28.3
2019-01-11T06:34:05.587Z,28.1
2019-01-11T06:36:05.429Z,28.3
2019-01-11T06:38:08.124Z,28.3
2019-01-11T06:40:05.791Z,28.2
2019-01-11T06:42:05.519Z,28.3
2019-01-11T06:44:10.282Z,28.2
2019-01-11T06:46:10.075Z,28.2
2019-01-11T06:48:10.365Z,28.2
2019-01-11T06:50:05.054Z,28.2
2019-01-11T06:52:08.299Z,28.2
2019-01-11T06:54:05.964Z,28.2
2019-01-11T06:56:05.631Z,28.2
2019-01-11T06:58:09.254Z,28.2
2019-01-11T07:00:05.974Z,28.2
2019-01-11T07:02:13.314Z,28.1
2019-01-11T07:04:05.053Z,28.1
2019-01-11T07:06:05.745Z,28.1
2019-01-11T07:08:07.949Z,28.2
2019-01-11T07:10:05.730Z,28.1
2019-01-11T07:12:05.498Z,28
2019-01-11T07:14:05.219Z,28
2019-01-11T07:16:05.458Z,28.2
2019-01-11T07:18:08.029Z,28.1
2019-01-11T07:20:06.250Z,28.1
2019-01-11T07:22:05.626Z,28.2
2019-01-11T07:24:05.849Z,28.2
2019-01-11T07:26:10.621Z,28
2019-01-11T07:28:05.786Z,28.2
2019-01-11T07:30:08.447Z,28.1
2019-01-11T07:32:07.636Z,28.1
2019-01-11T07:34:05.837Z,28.1
2019-01-11T07:36:05.519Z,28.2
2019-01-11T07:38:05.258Z,28.2
2019-01-11T07:40:08.006Z,28.1
2019-01-11T07:42:05.736Z,28.1
2019-01-11T07:44:15.507Z,28.1
2019-01-11T07:46:08.265Z,28.1
2019-01-11T07:48:05.935Z,28.1
2019-01-11T07:50:08.148Z,28.1
2019-01-11T07:52:05.916Z,28.3
2019-01-11T07:54:05.595Z,28.1
2019-01-11T07:56:05.354Z,28
2019-01-11T07:58:08.252Z,28.2
2019-01-11T08:00:05.982Z,28.1
2019-01-11T08:02:05.739Z,27.9
2019-01-11T08:04:05.447Z,28
2019-01-11T08:06:07.699Z,28
2019-01-11T08:08:05.405Z,28
2019-01-11T08:10:05.181Z,28
2019-01-11T08:12:05.929Z,28
2019-01-11T08:14:06.938Z,27.9
2019-01-11T08:16:05.192Z,27.9
2019-01-11T08:18:05.127Z,27.9
2019-01-11T08:20:05.833Z,28
2019-01-11T08:22:08.012Z,27.9
2019-01-11T08:24:05.260Z,27.9
2019-01-11T08:26:05.520Z,27.8
2019-01-11T08:28:05.719Z,27.9
2019-01-11T08:30:05.435Z,27.8
2019-01-11T08:32:05.131Z,27.9
2019-01-11T08:34:08.326Z,27.7
2019-01-11T08:36:05.081Z,27.7
2019-01-11T08:38:05.775Z,27.9
2019-01-11T08:40:05.430Z,27.8
2019-01-11T08:42:05.129Z,27.9
2019-01-11T08:44:05.378Z,28.1
2019-01-11T08:46:07.595Z,28.2
2019-01-11T08:48:07.765Z,28.3
2019-01-11T08:50:08.012Z,28.5
2019-01-11T08:52:05.225Z,28.5
2019-01-11T08:54:05.897Z,28.4
2019-01-11T08:56:08.994Z,28.5
2019-01-11T08:58:05.692Z,28.5
2019-01-11T09:00:05.354Z,28.5
2019-01-11T09:02:05.046Z,28.7
2019-01-11T09:04:10.813Z,28.7
2019-01-11T09:06:05.485Z,28.8
2019-01-11T09:08:05.168Z,28.6
2019-01-11T09:10:08.394Z,28.8
2019-01-11T09:12:05.863Z,28.8
2019-01-11T09:14:08.048Z,28.9
2019-01-11T09:16:08.228Z,28.9
2019-01-11T09:18:10.653Z,28.8
2019-01-11T09:20:10.426Z,28.5
2019-01-11T09:22:10.168Z,28.3
2019-01-11T09:24:05.895Z,28.5
2019-01-11T09:26:05.586Z,28.3
2019-01-11T09:28:05.316Z,28.3
2019-01-11T09:30:07.564Z,28.2
2019-01-11T09:32:05.273Z,28.2
2019-01-11T09:34:04.999Z,28
2019-01-11T09:36:05.675Z,28.2
2019-01-11T09:38:05.439Z,28
2019-01-11T09:40:05.165Z,28
2019-01-11T09:42:05.832Z,28
2019-01-11T09:44:08.040Z,28
2019-01-11T09:46:05.836Z,28
2019-01-11T09:48:05.503Z,28.2
2019-01-11T09:50:05.720Z,28.2
2019-01-11T09:52:05.373Z,28.1
2019-01-11T09:54:07.543Z,28.2
2019-01-11T09:56:05.172Z,28.2
2019-01-11T09:58:05.935Z,28.2
2019-01-11T10:00:05.165Z,28.3
2019-01-11T10:02:10.417Z,28.3
2019-01-11T10:04:05.069Z,28.3
2019-01-11T10:06:06.542Z,28.3
2019-01-11T10:08:05.194Z,28.3
2019-01-11T10:10:05.978Z,28.5
2019-01-11T10:12:13.220Z,28.6
2019-01-11T10:14:05.927Z,28.6
2019-01-11T10:16:05.618Z,28.7
2019-01-11T10:18:05.500Z,29
2019-01-11T10:20:05.188Z,29
2019-01-11T10:22:05.428Z,29.2
2019-01-11T10:24:05.112Z,29.2
2019-01-11T10:26:07.979Z,29.4
2019-01-11T10:28:07.753Z,29.4
2019-01-11T10:30:10.530Z,29.4
2019-01-11T10:32:07.815Z,29.5
2019-01-11T10:34:05.463Z,29.5
2019-01-11T10:36:05.428Z,29.5
2019-01-11T10:38:05.679Z,29.5
2019-01-11T10:40:05.356Z,29.5
2019-01-11T10:42:05.189Z,29.6
2019-01-11T10:44:05.880Z,29.7
2019-01-11T10:46:05.574Z,29.7
2019-01-11T10:48:05.299Z,29.8
2019-01-11T10:50:06.050Z,29.8
2019-01-11T10:52:10.758Z,29.9
2019-01-11T10:54:08.454Z,29.8
2019-01-11T10:56:07.679Z,29.7
2019-01-11T10:58:07.909Z,29.5
2019-01-11T11:00:05.594Z,29.5
2019-01-11T11:02:05.297Z,29.3
2019-01-11T11:04:05.948Z,29.3
2019-01-11T11:06:05.633Z,29.2
2019-01-11T11:08:05.367Z,29.2
2019-01-11T11:10:05.147Z,29.2
2019-01-11T11:12:06.629Z,29
2019-01-11T11:14:05.326Z,29.2
2019-01-11T11:16:05.029Z,29.2
2019-01-11T11:18:05.968Z,29.1
2019-01-11T11:20:05.667Z,29.2
2019-01-11T11:22:10.412Z,29.1
2019-01-11T11:24:07.605Z,29
2019-01-11T11:26:05.276Z,29
2019-01-11T11:28:11.024Z,29.2
2019-01-11T11:30:05.700Z,29
2019-01-11T11:32:10.637Z,29.1
2019-01-11T11:34:05.837Z,29.1
2019-01-11T11:36:07.621Z,28.9
2019-01-11T11:38:07.814Z,29.1
2019-01-11T11:40:05.474Z,29.1
2019-01-11T11:42:05.170Z,28.9
2019-01-11T11:44:05.848Z,28.9
2019-01-11T11:46:08.097Z,28.9
2019-01-11T11:48:10.894Z,28.8
2019-01-11T11:50:05.535Z,28.8
2019-01-11T11:52:10.320Z,28.7
2019-01-11T11:54:08.071Z,28.8
2019-01-11T11:56:05.785Z,28.7
2019-01-11T11:58:05.532Z,28.8
2019-01-11T12:00:05.227Z,28.7
2019-01-11T12:02:05.921Z,28.4
2019-01-11T12:04:08.157Z,28.1
2019-01-11T12:06:05.883Z,28.1
2019-01-11T12:08:07.610Z,28.1
2019-01-11T12:10:05.856Z,28.1
2019-01-11T12:12:10.695Z,28
2019-01-11T12:14:05.401Z,27.9
2019-01-11T12:16:05.359Z,27.9
2019-01-11T12:18:07.746Z,27.9
2019-01-11T12:20:05.424Z,27.9
2019-01-11T12:22:05.091Z,28
2019-01-11T12:24:05.804Z,28
2019-01-11T12:26:05.981Z,27.8
2019-01-11T12:28:05.640Z,27.8
2019-01-11T12:30:12.920Z,27.7
2019-01-11T12:32:05.629Z,27.7
2019-01-11T12:34:05.879Z,27.8
2019-01-11T12:36:05.605Z,27.7
2019-01-11T12:38:05.348Z,27.7
2019-01-11T12:40:05.084Z,27.8
2019-01-11T12:42:05.789Z,27.8
2019-01-11T12:44:08.105Z,27.9
2019-01-11T12:46:05.822Z,27.9
2019-01-11T12:48:05.485Z,27.9
2019-01-11T12:50:05.226Z,27.7
2019-01-11T12:52:05.454Z,27.9
2019-01-11T12:54:05.813Z,28
2019-01-11T12:56:10.597Z,27.9
2019-01-11T12:58:05.284Z,27.9
2019-01-11T13:00:05.994Z,28.1
2019-01-11T13:02:05.704Z,28.2
2019-01-11T13:04:05.337Z,28.2
2019-01-11T13:06:11.050Z,28.2
2019-01-11T13:08:05.743Z,28.2
2019-01-11T13:10:05.385Z,28.3
2019-01-11T13:12:05.075Z,28.3
2019-01-11T13:14:08.354Z,28.5
2019-01-11T13:16:07.625Z,28.5
2019-01-11T13:18:05.552Z,28.5
2019-01-11T13:20:05.227Z,28.5
2019-01-11T13:22:05.994Z,28.7
2019-01-11T13:24:05.695Z,28.7
2019-01-11T13:26:11.019Z,28.7
2019-01-11T13:28:05.240Z,28.7
2019-01-11T13:30:05.873Z,28.5
2019-01-11T13:32:05.589Z,28.6
2019-01-11T13:34:05.291Z,28.6
2019-01-11T13:36:05.983Z,28.6
2019-01-11T13:38:05.662Z,28.6
2019-01-11T13:40:05.348Z,28.7
2019-01-11T13:42:05.055Z,28.7
2019-01-11T13:44:05.883Z,28.7
2019-01-11T13:46:05.712Z,28.7
2019-01-11T13:48:13.079Z,28.6
2019-01-11T13:50:08.301Z,28.6
2019-01-11T13:52:07.850Z,28.6
2019-01-11T13:54:10.655Z,28.6
2019-01-11T13:56:10.437Z,28.5
2019-01-11T13:58:08.227Z,28.5
2019-01-11T14:00:05.904Z,28.5
2019-01-11T14:02:10.987Z,28.6
2019-01-11T14:04:05.134Z,28.6
2019-01-11T14:06:05.816Z,28.6
2019-01-11T14:08:05.504Z,28.6
2019-01-11T14:10:05.398Z,28.6
2019-01-11T14:12:05.267Z,28.6
2019-01-11T14:14:05.953Z,28.6
2019-01-11T14:16:05.641Z,28.7
2019-01-11T14:18:08.076Z,28.5
2019-01-11T14:20:05.829Z,28.7
2019-01-11T14:22:05.539Z,28.7
2019-01-11T14:24:05.229Z,28.7
2019-01-11T14:26:05.887Z,28.7
2019-01-11T14:28:05.564Z,28.6
2019-01-11T14:30:05.193Z,28.6
2019-01-11T14:32:05.919Z,28.6
2019-01-11T14:34:05.714Z,28.5
2019-01-11T14:36:05.431Z,28.5
2019-01-11T14:38:05.096Z,28.5
2019-01-11T14:40:18.465Z,28.5
2019-01-11T14:42:10.262Z,28.6
2019-01-11T14:44:08.473Z,28.4
2019-01-11T14:46:07.708Z,28.5
2019-01-11T14:48:05.463Z,28.5
2019-01-11T14:50:05.108Z,28.6
2019-01-11T14:52:05.337Z,28.6
2019-01-11T14:54:08.129Z,28.6
2019-01-11T14:56:07.635Z,28.8
2019-01-11T14:58:05.323Z,28.8
2019-01-11T15:00:05.036Z,28.9
2019-01-11T15:02:05.759Z,29
2019-01-11T15:04:07.991Z,29
2019-01-11T15:06:05.230Z,29.2
2019-01-11T15:08:05.015Z,29.3
2019-01-11T15:10:05.724Z,29.3
2019-01-11T15:12:05.399Z,29.4
2019-01-11T15:14:05.052Z,29.5
2019-01-11T15:16:05.266Z,29.5
2019-01-11T15:18:07.748Z,29.7
2019-01-11T15:20:08.007Z,29.6
2019-01-11T15:22:08.254Z,29.7
2019-01-11T15:24:13.501Z,29.6
2019-01-11T15:26:05.169Z,29.7
2019-01-11T15:28:05.860Z,29.6
2019-01-11T15:30:05.170Z,29.7
2019-01-11T15:32:05.859Z,29.7
2019-01-11T15:34:05.535Z,29.7
2019-01-11T15:36:05.733Z,29.7
2019-01-11T15:38:13.001Z,29.7
2019-01-11T15:40:05.716Z,29.7
2019-01-11T15:42:05.578Z,29.8
2019-01-11T15:44:05.363Z,29.9
2019-01-11T15:46:05.203Z,29.9
2019-01-11T15:48:05.965Z,29.9
2019-01-11T15:53:10.059Z,29.8
2019-01-11T15:54:05.882Z,30
2019-01-11T15:56:05.558Z,30
2019-01-11T15:58:05.268Z,29.8
2019-01-11T16:00:05.954Z,29.9
2019-01-11T16:02:05.642Z,30
2019-01-11T16:04:05.860Z,30
2019-01-11T16:06:08.165Z,30
2019-01-11T16:08:05.911Z,30
2019-01-11T16:10:05.531Z,30.1
2019-01-11T16:12:05.244Z,30.1
2019-01-11T16:14:06.220Z,30.1
2019-01-11T16:16:05.172Z,30.1
2019-01-11T16:18:05.100Z,30.2
2019-01-11T16:20:06.059Z,30.3
2019-01-11T16:22:07.329Z,30.4
2019-01-11T16:24:05.293Z,30.5
2019-01-11T16:26:05.952Z,30.5
2019-01-11T16:28:05.633Z,30.7
2019-01-11T16:30:05.552Z,30.8
2019-01-11T16:32:05.227Z,31
2019-01-11T16:34:05.113Z,31.2
2019-01-11T16:36:05.631Z,31.2
2019-01-11T16:38:05.647Z,31.5
2019-01-11T16:40:05.561Z,31.5
2019-01-11T16:42:05.872Z,31.4
2019-01-11T16:44:05.559Z,31.7
2019-01-11T16:46:05.343Z,31.6
2019-01-11T16:48:05.118Z,31.6
2019-01-11T16:50:05.763Z,31.8
2019-01-11T16:52:05.962Z,31.8
2019-01-11T16:54:05.661Z,31.8
2019-01-11T16:56:10.475Z,31.6
2019-01-11T16:58:05.163Z,31.6
2019-01-11T17:00:05.820Z,31.6
2019-01-11T17:02:05.486Z,31.5
2019-01-11T17:04:07.701Z,31.5
2019-01-11T17:06:05.456Z,31.5
2019-01-11T17:08:05.772Z,31.5
2019-01-11T17:10:07.973Z,31.5
2019-01-11T17:12:06.883Z,31.5
2019-01-11T17:14:05.590Z,31.5
2019-01-11T17:16:05.270Z,31.4
2019-01-11T17:18:05.654Z,31.2
2019-01-11T17:20:07.898Z,30.9
2019-01-11T17:22:12.681Z,30.8
2019-01-11T17:24:05.344Z,30.8
2019-01-11T17:26:05.060Z,30.8
2019-01-11T17:28:13.311Z,30.9
2019-01-11T17:30:06.012Z,30.9
2019-01-11T17:32:05.659Z,31.1
2019-01-11T17:34:05.317Z,31
2019-01-11T17:36:05.560Z,31.2
2019-01-11T17:38:05.251Z,31.2
2019-01-11T17:40:05.981Z,31.3
2019-01-11T17:42:08.258Z,31.3
2019-01-11T17:44:05.965Z,31.3
2019-01-11T17:46:05.419Z,31.3
2019-01-11T17:48:05.674Z,31.3
2019-01-11T17:50:05.353Z,31.3
2019-01-11T17:52:05.078Z,31.3
2019-01-11T17:54:08.330Z,31.1
2019-01-11T17:56:10.052Z,31.1
2019-01-11T17:58:05.731Z,31.1
2019-01-11T18:00:05.369Z,31.1
2019-01-11T18:02:05.601Z,31.1
2019-01-11T18:04:07.836Z,31.1
2019-01-11T18:06:08.078Z,31
2019-01-11T18:08:05.780Z,31
2019-01-11T18:10:05.400Z,31.1
2019-01-11T18:12:12.709Z,31
2019-01-11T18:14:05.659Z,31
2019-01-11T18:16:05.892Z,31
2019-01-11T18:18:05.817Z,31.1
2019-01-11T18:20:07.676Z,31
2019-01-11T18:22:05.420Z,31
2019-01-11T18:24:08.580Z,31
2019-01-11T18:26:05.776Z,31
2019-01-11T18:28:05.818Z,31
2019-01-11T18:30:05.758Z,31
2019-01-11T18:32:08.328Z,31
2019-01-11T18:34:05.154Z,31
2019-01-11T18:36:10.666Z,31
2019-01-11T18:38:05.393Z,30.8
2019-01-11T18:40:05.083Z,30.8
2019-01-11T18:42:05.754Z,30.8
2019-01-11T18:44:05.905Z,30.8
2019-01-11T18:46:10.848Z,30.8
2019-01-11T18:48:05.074Z,30.8
2019-01-11T18:50:05.746Z,30.8
2019-01-11T18:52:07.975Z,30.8
2019-01-11T18:54:05.707Z,30.8
2019-01-11T18:56:06.278Z,30.8
2019-01-11T18:58:08.507Z,30.8
2019-01-11T19:00:08.318Z,30.9
2019-01-11T19:02:06.033Z,30.9
2019-01-11T19:04:11.004Z,30.8
2019-01-11T19:06:05.489Z,30.9
2019-01-11T19:08:05.282Z,31.1
2019-01-11T19:10:05.178Z,30.9
2019-01-11T19:12:05.856Z,30.9
2019-01-11T19:14:05.612Z,30.9
2019-01-11T19:16:11.145Z,30.9
2019-01-11T19:18:05.133Z,30.9
2019-01-11T19:20:05.855Z,30.9
2019-01-11T19:22:05.642Z,30.9
2019-01-11T19:24:06.388Z,30.9
2019-01-11T19:26:05.357Z,30.9
2019-01-11T19:28:07.523Z,31.1
2019-01-11T19:30:05.187Z,31.1
2019-01-11T19:32:05.862Z,31.1
2019-01-11T19:34:05.740Z,31
2019-01-11T19:36:05.967Z,31.1
2019-01-11T19:38:07.753Z,30.9
2019-01-11T19:40:10.545Z,30.9
2019-01-11T19:42:10.285Z,30.9
2019-01-11T19:44:05.931Z,30.8
2019-01-11T19:46:05.390Z,31.1
2019-01-11T19:48:05.139Z,30.9
2019-01-11T19:50:05.846Z,31.1
2019-01-11T19:52:10.539Z,30.8
2019-01-11T19:54:05.266Z,30.8
2019-01-11T19:56:08.736Z,30.9
2019-01-11T19:58:05.437Z,30.9
2019-01-11T20:00:07.873Z,30.9
2019-01-11T20:02:05.823Z,31
2019-01-11T20:04:08.026Z,31.2
2019-01-11T20:06:10.325Z,31
2019-01-11T20:08:07.605Z,31.3
2019-01-11T20:10:05.100Z,31
2019-01-11T20:12:05.873Z,31.2
2019-01-11T20:14:08.121Z,31.1
2019-01-11T20:16:10.896Z,31.1
2019-01-11T20:18:05.853Z,31.1
2019-01-11T20:20:06.841Z,31.2
2019-01-11T20:22:05.589Z,31.1
2019-01-11T20:24:05.781Z,31.1
2019-01-11T20:26:08.018Z,31.1
2019-01-11T20:28:05.704Z,31.1
2019-01-11T20:30:05.917Z,31.1
2019-01-11T20:32:09.178Z,31.1
2019-01-11T20:34:05.945Z,31.1
2019-01-11T20:36:06.163Z,31
2019-01-11T20:38:05.855Z,31
2019-01-11T20:40:05.582Z,31
2019-01-11T20:42:06.333Z,31
2019-01-11T20:44:05.085Z,31.1
2019-01-11T20:46:05.823Z,31
2019-01-11T20:48:05.517Z,30.9
2019-01-11T20:50:05.223Z,30.9
2019-01-11T20:52:05.994Z,30.9
2019-01-11T20:54:05.865Z,30.9
2019-01-11T20:56:10.581Z,30.9
2019-01-11T20:58:07.737Z,30.7
2019-01-11T21:00:07.981Z,30.8
2019-01-11T21:02:05.878Z,30.7
2019-01-11T21:04:08.602Z,30.9
2019-01-11T21:06:05.269Z,30.7
2019-01-11T21:08:08.497Z,30.9
2019-01-11T21:10:05.186Z,30.9
2019-01-11T21:12:05.443Z,30.9
2019-01-11T21:14:15.273Z,30.7
2019-01-11T21:16:11.017Z,30.9
2019-01-11T21:18:05.937Z,30.9
2019-01-11T21:20:05.610Z,30.7
2019-01-11T21:22:08.050Z,30.7
2019-01-11T21:24:08.327Z,31
2019-01-11T21:26:05.534Z,31
2019-01-11T21:28:07.751Z,30.9
2019-01-11T21:30:05.405Z,30.9
2019-01-11T21:32:05.062Z,30.9
2019-01-11T21:34:05.731Z,30.8
2019-01-11T21:36:10.475Z,30.8
2019-01-11T21:38:05.150Z,30.8
2019-01-11T21:40:05.908Z,30.8
2019-01-11T21:42:07.470Z,30.8
2019-01-11T21:44:05.156Z,30.8
2019-01-11T21:46:05.612Z,30.8
2019-01-11T21:48:05.508Z,30.7
2019-01-11T21:50:05.231Z,30.8
2019-01-11T21:52:05.951Z,30.7
2019-01-11T21:54:10.768Z,30.9
2019-01-11T21:56:08.501Z,30.9
2019-01-11T21:58:17.809Z,30.8
2019-01-11T22:00:05.494Z,30.8
2019-01-11T22:02:05.208Z,30.8
2019-01-11T22:04:05.439Z,30.8
2019-01-11T22:06:07.296Z,30.7
2019-01-11T22:08:05.050Z,30.7
2019-01-11T22:10:08.503Z,30.7
2019-01-11T22:12:05.436Z,30.7
2019-01-11T22:14:06.207Z,30.7
2019-01-11T22:16:07.801Z,30.7
2019-01-11T22:18:08.243Z,30.7
2019-01-11T22:20:05.960Z,30.6
2019-01-11T22:22:05.647Z,30.6
2019-01-11T22:24:07.901Z,30.6
2019-01-11T22:26:08.204Z,30.7
2019-01-11T22:28:10.980Z,30.7
2019-01-11T22:30:05.880Z,30.5
2019-01-11T22:32:05.593Z,30.6
2019-01-11T22:34:05.362Z,30.6
2019-01-11T22:36:05.698Z,30.5
2019-01-11T22:38:05.415Z,30.7
2019-01-11T22:40:05.092Z,30.7
2019-01-11T22:42:05.810Z,30.6
2019-01-11T22:44:05.746Z,30.6
2019-01-11T22:46:06.611Z,30.6
2019-01-11T22:48:05.876Z,30.6
2019-01-11T22:50:05.582Z,30.6
2019-01-11T22:52:05.899Z,30.5
2019-01-11T22:54:10.843Z,30.5
2019-01-11T22:56:05.020Z,30.5
2019-01-11T22:58:05.184Z,30.5
2019-01-11T23:00:08.411Z,30.5
2019-01-11T23:02:05.123Z,30.5
2019-01-11T23:04:05.829Z,30.5
2019-01-11T23:06:09.599Z,30.4
2019-01-11T23:08:05.263Z,30.5
2019-01-11T23:10:05.970Z,30.4
2019-01-11T23:12:11.002Z,30.2
2019-01-11T23:14:05.892Z,30.2
2019-01-11T23:16:05.588Z,30.3
2019-01-11T23:18:05.620Z,30.5
2019-01-11T23:20:05.330Z,30.5
2019-01-11T23:22:13.127Z,30.8
2019-01-11T23:24:05.310Z,30.8
2019-01-11T23:26:05.229Z,30.8
2019-01-11T23:28:05.877Z,31
2019-01-11T23:30:10.688Z,30.8
2019-01-11T23:32:05.349Z,31
2019-01-11T23:34:10.115Z,30.8
2019-01-11T23:36:05.987Z,30.8
2019-01-11T23:38:07.749Z,30.9
2019-01-11T23:40:05.421Z,30.9
2019-01-11T23:42:05.394Z,30.9
2019-01-11T23:44:15.193Z,31
2019-01-11T23:46:06.153Z,30.9
2019-01-11T23:48:05.869Z,31
2019-01-11T23:50:05.668Z,31
2019-01-11T23:52:05.345Z,31.1
2019-01-11T23:54:08.838Z,31.1
2019-01-11T23:56:05.764Z,31.1
2019-01-11T23:58:07.994Z,31.1
